Time;durP1;ratioP1;P1;durP2;ratioP2;P2;SDS_P1;SDS_P2;PMS_P1;PMS_P2;Temp;Humidity;BMP_temperature;BMP_pressure;BME280_temperature;BME280_humidity;BME280_pressure;Samples;Min_cycle;Max_cycle;Signal;HPM_P1;HPM_P2
2024/04/26 00:02:18;;;;;;;6.63;3.95;;;;;;;9.08;59.31;98364.09;6483456;22;20005;-88
2024/04/26 00:04:44;;;;;;;7.45;3.85;;;;;;;9.08;59.22;98364.09;6528591;22;20296;-87
2024/04/26 00:07:11;;;;;;;8.63;4.43;;;;;;;9.10;59.36;98356.91;6483955;22;20001;-88
2024/04/26 00:09:38;;;;;;;6.47;3.42;;;;;;;9.11;59.34;98364.69;6483069;22;20001;-88
2024/04/26 00:12:05;;;;;;;6.88;3.70;;;;;;;9.11;59.27;98359.44;6483547;22;20017;-88
2024/04/26 00:14:32;;;;;;;7.03;3.20;;;;;;;9.13;59.38;98354.06;6527616;22;19989;-87
2024/04/26 00:16:59;;;;;;;5.25;3.25;;;;;;;9.13;59.03;98351.44;6527759;22;20489;-88
2024/04/26 00:19:26;;;;;;;6.13;3.80;;;;;;;9.13;58.96;98344.38;6525782;22;19993;-88
2024/04/26 00:21:52;;;;;;;10.38;3.33;;;;;;;9.15;59.25;98360.03;6483521;22;20008;-88
2024/04/26 00:24:19;;;;;;;7.50;3.55;;;;;;;9.17;59.26;98349.41;6483589;22;20622;-88
2024/04/26 00:26:48;;;;;;;15.45;3.60;;;;;;;9.17;59.22;98359.94;6483623;22;20016;-88
2024/04/26 00:29:16;;;;;;;6.57;3.38;;;;;;;9.18;58.98;98354.56;6483307;22;20020;-88
2024/04/26 00:31:43;;;;;;;5.85;3.30;;;;;;;9.18;59.19;98344.06;6483576;22;20008;-88
2024/04/26 00:34:10;;;;;;;7.78;3.33;;;;;;;9.19;59.16;98348.34;6483635;22;19997;-87
2024/04/26 00:36:39;;;;;;;7.78;3.13;;;;;;;9.20;59.26;98344.78;6527806;22;20035;-87
2024/04/26 00:39:06;;;;;;;5.45;2.92;;;;;;;9.20;58.83;98360.53;6482835;22;20000;-88
2024/04/26 00:41:33;;;;;;;8.68;3.45;;;;;;;9.21;59.05;98354.34;6527695;22;20005;-87
2024/04/26 00:44:00;;;;;;;11.38;3.75;;;;;;;9.21;58.94;98349.09;6482816;22;19998;-88
2024/04/26 00:46:27;;;;;;;5.22;3.47;;;;;;;9.19;58.69;98355.41;6482875;22;20009;-88
2024/04/26 00:48:54;;;;;;;7.03;3.35;;;;;;;9.20;58.62;98355.28;6527307;22;20004;-88
2024/04/26 00:51:23;;;;;;;6.80;3.50;;;;;;;9.19;58.83;98355.41;6527815;22;20001;-88
2024/04/26 00:53:50;;;;;;;9.50;3.42;;;;;;;9.21;58.87;98348.25;6483285;22;20075;-88
2024/04/26 00:56:17;;;;;;;7.10;3.60;;;;;;;9.22;58.82;98357.78;6527432;22;20424;-88
2024/04/26 00:58:45;;;;;;;6.40;3.40;;;;;;;9.22;58.98;98357.78;6524927;22;19997;-88
2024/04/26 01:01:12;;;;;;;7.82;3.35;;;;;;;9.20;58.75;98357.91;6527240;22;20123;-88
2024/04/26 01:03:38;;;;;;;7.90;3.47;;;;;;;9.19;59.08;98353.59;6483067;22;20001;-88
2024/04/26 01:06:05;;;;;;;9.40;3.78;;;;;;;9.18;58.87;98351.09;6527671;22;20001;-87
2024/04/26 01:08:32;;;;;;;11.43;3.80;;;;;;;9.18;59.09;98353.72;6526784;22;20040;-88
2024/04/26 01:10:59;;;;;;;7.25;3.70;;;;;;;9.17;59.05;98352.03;6482578;22;19994;-87
2024/04/26 01:13:27;;;;;;;9.63;3.50;;;;;;;9.17;59.08;98354.66;6483287;22;19997;-88
2024/04/26 01:15:57;;;;;;;8.73;3.90;;;;;;;9.15;59.49;98341.66;6517148;21;20001;-89
2024/04/26 01:18:24;;;;;;;7.97;4.20;;;;;;;9.16;59.56;98355.63;6485891;22;20410;-94
2024/04/26 01:20:59;;;;;;;8.77;3.65;;;;;;;9.10;59.19;98354.28;6484234;22;20470;-89
2024/04/26 01:23:29;;;;;;;5.72;3.40;;;;;;;9.12;59.38;98352.38;6483841;22;20008;-89
2024/04/26 01:26:30;;;;;;;9.23;3.72;;;;;;;9.06;59.25;98355.47;6483353;22;20003;-85
2024/04/26 01:28:57;;;;;;;9.65;4.38;;;;;;;9.07;59.20;98360.59;6483280;22;20097;-89
2024/04/26 01:31:23;;;;;;;11.05;4.10;;;;;;;9.04;59.94;98352.13;6483009;22;20283;-85
2024/04/26 01:34:17;;;;;;;9.90;4.07;;;;;;;8.98;60.12;98353.41;6483797;22;20049;-86
2024/04/26 01:36:44;;;;;;;5.57;3.33;;;;;;;9.01;59.80;98358.41;6483702;22;20011;-89
2024/04/26 01:39:14;;;;;;;10.27;3.75;;;;;;;8.97;59.74;98351.75;6482852;22;20001;-89
2024/04/26 01:41:41;;;;;;;7.47;4.25;;;;;;;8.98;60.04;98354.22;6530435;22;19993;-95
2024/04/26 01:44:08;;;;;;;6.85;3.60;;;;;;;8.98;60.27;98358.66;6483138;22;20064;-88
2024/04/26 01:46:36;;;;;;;7.78;3.97;;;;;;;8.97;60.25;98357.81;6528179;22;19989;-88
2024/04/26 01:49:03;;;;;;;6.97;3.60;;;;;;;8.96;60.48;98350.03;6483318;22;20005;-85
2024/04/26 01:51:30;;;;;;;7.85;3.72;;;;;;;8.96;60.27;98345.66;6527902;22;20008;-89
2024/04/26 01:54:02;;;;;;;7.93;3.75;;;;;;;8.94;60.52;98347.53;6483587;22;20345;-89
2024/04/26 01:56:29;;;;;;;8.73;4.28;;;;;;;8.95;60.36;98346.59;6483413;22;20021;-88
2024/04/26 02:02:44;;;;;;;5.60;3.53;;;;;;;8.96;60.11;98340.41;6533530;22;19991;-88
2024/04/26 02:05:12;;;;;;;10.50;4.25;;;;;;;8.96;60.36;98344.78;6484155;22;20008;-86
2024/04/26 02:07:42;;;;;;;9.60;4.00;;;;;;;8.95;60.78;98341.34;6527933;22;20009;-85
2024/04/26 02:10:09;;;;;;;4.93;3.35;;;;;;;8.97;60.72;98341.25;6527847;22;20088;-89
2024/04/26 02:12:37;;;;;;;10.73;3.95;;;;;;;8.97;60.53;98336.81;6483838;22;20016;-89
2024/04/26 02:15:27;;;;;;;7.80;3.42;;;;;;;8.95;60.98;98338.72;6484154;22;20465;-86
2024/04/26 02:17:54;;;;;;;7.32;3.40;;;;;;;8.99;60.88;98340.19;6483473;22;19993;-86
2024/04/26 02:20:21;;;;;;;9.82;4.40;;;;;;;9.01;60.83;98331.34;6483044;22;20360;-89
2024/04/26 02:22:52;;;;;;;7.78;3.65;;;;;;;9.01;60.94;98339.22;6483401;22;20342;-89
2024/04/26 02:25:20;;;;;;;9.23;4.05;;;;;;;9.02;60.85;98339.13;6528242;22;20012;-94
2024/04/26 02:27:47;;;;;;;9.15;3.60;;;;;;;9.03;60.81;98334.69;6529849;22;20005;-85
2024/04/26 02:30:14;;;;;;;7.55;4.10;;;;;;;9.02;60.90;98327.75;6482909;22;19997;-88
2024/04/26 02:32:41;;;;;;;7.57;4.25;;;;;;;9.03;60.93;98327.66;6483538;22;19998;-89
2024/04/26 02:35:11;;;;;;;11.18;4.03;;;;;;;9.02;60.76;98322.50;6483926;22;20398;-89
2024/04/26 02:37:40;;;;;;;7.03;3.90;;;;;;;9.03;60.92;98313.69;6483750;22;20295;-89
2024/04/26 02:40:07;;;;;;;9.27;4.22;;;;;;;9.01;60.91;98321.66;6483320;22;20370;-89
2024/04/26 02:42:56;;;;;;;7.38;3.90;;;;;;;8.97;61.21;98315.81;6486436;22;19993;-94
2024/04/26 02:45:27;;;;;;;10.35;4.10;;;;;;;9.02;60.97;98314.63;6530327;22;20040;-85
2024/04/26 02:47:54;;;;;;;10.48;4.60;;;;;;;9.01;60.96;98315.59;6485690;22;20001;-85
2024/04/26 02:50:34;;;;;;;8.23;3.95;;;;;;;8.96;61.02;98327.28;6529593;22;19993;-89
2024/04/26 02:53:03;;;;;;;9.27;4.63;;;;;;;8.99;60.93;98319.19;6485444;22;20451;-89
2024/04/26 02:59:23;;;;;;;11.90;4.32;;;;;;;8.98;60.88;98322.72;6534784;22;20081;-86
2024/04/26 03:01:54;;;;;;;7.97;3.78;;;;;;;8.98;60.85;98322.72;6485710;22;20398;-86
2024/04/26 03:04:21;;;;;;;9.32;4.75;;;;;;;8.99;60.87;98324.44;6485165;22;19997;-89
2024/04/26 03:06:59;;;;;;;7.95;4.65;;;;;;;8.97;60.54;98333.38;6484960;22;19993;-85
2024/04/26 03:09:26;;;;;;;8.77;4.63;;;;;;;9.02;61.02;98333.00;6484630;22;20049;-89
2024/04/26 03:15:41;;;;;;;7.28;3.67;;;;;;;9.05;60.86;98338.06;6533430;22;20067;-88
2024/04/26 03:18:13;;;;;;;7.68;3.88;;;;;;;9.05;61.24;98332.81;6485146;22;20021;-84
2024/04/26 03:20:40;;;;;;;9.13;4.47;;;;;;;9.09;61.23;98345.56;6485443;22;19993;-89
2024/04/26 03:23:07;;;;;;;12.27;4.75;;;;;;;9.13;61.47;98356.69;6484994;22;20001;-86
2024/04/26 03:25:35;;;;;;;6.80;3.97;;;;;;;9.14;61.40;98347.88;6529807;22;19997;-86
2024/04/26 03:28:02;;;;;;;7.55;4.28;;;;;;;9.17;61.75;98363.41;6484341;22;20361;-88
2024/04/26 03:30:29;;;;;;;10.32;5.07;;;;;;;9.20;61.78;98351.81;6486456;22;20075;-94
2024/04/26 03:33:19;;;;;;;8.88;5.47;;;;;;;9.17;62.76;98366.03;6485613;22;20009;-85
2024/04/26 03:35:46;;;;;;;16.08;5.50;;;;;;;9.23;62.14;98365.56;6487220;22;20019;-94
2024/04/26 03:38:14;;;;;;;12.20;7.53;;;;;;;9.23;62.38;98362.94;6531624;22;20012;-93
2024/04/26 03:40:44;;;;;;;9.48;6.68;;;;;;;9.21;62.82;98370.09;6485753;22;20001;-90
2024/04/26 03:43:14;;;;;;;11.63;8.88;;;;;;;9.22;62.51;98369.13;6529444;22;19989;-86
2024/04/26 03:45:41;;;;;;;10.48;7.90;;;;;;;9.20;62.44;98357.91;6484585;22;19997;-85
2024/04/26 03:51:38;;;;;;;13.32;8.25;;;;;;;9.18;62.75;98364.22;6529444;22;19993;-90
2024/04/26 03:54:11;;;;;;;15.75;8.18;;;;;;;9.13;63.59;98368.00;6484735;22;20013;-89
2024/04/26 03:56:39;;;;;;;12.55;8.80;;;;;;;9.15;63.03;98364.47;6484808;22;19994;-91
2024/04/26 03:59:07;;;;;;;11.52;8.43;;;;;;;9.12;63.40;98368.97;6528641;22;20004;-91
2024/04/26 04:01:35;;;;;;;14.00;8.45;;;;;;;9.10;63.36;98364.78;6484735;22;20008;-91
2024/04/26 04:04:02;;;;;;;15.52;8.95;;;;;;;9.09;63.57;98360.50;6484216;22;20005;-91
2024/04/26 04:06:30;;;;;;;13.27;9.05;;;;;;;9.07;63.63;98359.75;6485009;22;20005;-91
2024/04/26 04:08:59;;;;;;;11.68;8.85;;;;;;;9.07;64.23;98359.75;6484285;22;20001;-90
2024/04/26 04:11:25;;;;;;;15.10;9.73;;;;;;;9.08;63.80;98358.84;6484473;22;20048;-87
2024/04/26 04:13:54;;;;;;;15.25;9.50;;;;;;;9.08;64.22;98353.56;6528925;22;20029;-89
2024/04/26 04:16:30;;;;;;;11.73;9.38;;;;;;;9.05;64.58;98356.41;6484332;22;20421;-91
2024/04/26 04:18:58;;;;;;;12.85;9.30;;;;;;;9.06;64.05;98352.84;6497000;22;20415;-96
2024/04/26 04:21:26;;;;;;;13.25;9.00;;;;;;;9.03;63.62;98348.66;6488902;22;20004;-86
2024/04/26 04:23:55;;;;;;;12.93;9.13;;;;;;;8.98;63.96;98350.78;6484978;22;20064;-91
2024/04/26 04:26:22;;;;;;;14.50;9.60;;;;;;;8.97;63.92;98346.50;6485002;22;19993;-91
2024/04/26 04:28:51;;;;;;;14.85;9.45;;;;;;;8.94;64.09;98355.41;6484681;22;20333;-91
2024/04/26 04:31:21;;;;;;;12.75;9.25;;;;;;;8.90;64.92;98351.31;6484949;22;20071;-91
2024/04/26 04:33:48;;;;;;;11.60;9.00;;;;;;;8.88;64.53;98350.63;6484418;22;20000;-91
2024/04/26 04:36:17;;;;;;;12.80;9.25;;;;;;;8.87;65.06;98348.94;6484757;22;20008;-91
2024/04/26 04:38:44;;;;;;;14.32;9.57;;;;;;;8.87;64.59;98343.69;6484157;22;20001;-87
2024/04/26 04:41:12;;;;;;;12.43;8.93;;;;;;;8.85;64.86;98354.31;6484366;22;20320;-90
2024/04/26 04:43:40;;;;;;;18.20;8.68;;;;;;;8.84;64.82;98351.78;6484926;22;20001;-86
2024/04/26 04:46:07;;;;;;;14.68;9.45;;;;;;;8.82;65.03;98356.31;6484572;22;20447;-88
2024/04/26 04:52:20;;;;;;;12.73;8.25;;;;;;;8.76;64.74;98351.50;6539119;22;19999;-96
2024/04/26 04:55:09;;;;;;;11.82;7.82;;;;;;;8.68;65.28;98358.13;6485215;22;20001;-90
2024/04/26 04:57:38;;;;;;;11.85;7.10;;;;;;;8.69;64.80;98356.34;6484712;22;20415;-91
2024/04/26 05:00:06;;;;;;;11.88;7.65;;;;;;;8.66;64.89;98349.53;6490510;22;20041;-96
2024/04/26 05:06:22;;;;;;;9.52;6.43;;;;;;;8.64;64.98;98351.44;6540771;22;20045;-96
2024/04/26 05:12:37;;;;;;;10.15;6.63;;;;;;;8.62;65.11;98355.09;6540368;22;20417;-96
2024/04/26 05:15:06;;;;;;;11.68;7.05;;;;;;;8.60;65.15;98361.31;6485124;22;20071;-91
2024/04/26 05:17:33;;;;;;;13.52;6.68;;;;;;;8.61;65.10;98367.41;6483798;22;20453;-91
2024/04/26 05:20:03;;;;;;;13.27;6.93;;;;;;;8.60;65.43;98371.78;6484214;22;20291;-90
2024/04/26 05:22:32;;;;;;;13.18;6.70;;;;;;;8.59;65.76;98374.53;6483822;22;19997;-90
2024/04/26 05:24:59;;;;;;;10.48;6.60;;;;;;;8.61;65.52;98372.66;6484263;22;19989;-90
2024/04/26 05:27:35;;;;;;;9.77;6.22;;;;;;;8.60;65.79;98366.56;6483935;22;20048;-91
2024/04/26 05:30:03;;;;;;;10.63;6.68;;;;;;;8.65;65.33;98374.09;6533775;22;19997;-96
2024/04/26 05:32:31;;;;;;;11.57;7.35;;;;;;;8.63;65.64;98370.75;6486186;22;20009;-91
2024/04/26 05:35:00;;;;;;;11.75;7.13;;;;;;;8.65;65.49;98381.13;6483627;22;19993;-90
2024/04/26 05:37:30;;;;;;;;;;;;;;;8.67;65.78;98376.63;6529455;22;20026;-90
2024/04/26 05:39:58;;;;;;;12.30;5.13;;;;;;;8.69;65.19;98370.31;6487660;22;19932;-96
2024/04/26 05:42:57;;;;;;;13.82;6.70;;;;;;;8.66;65.91;98382.78;6487800;22;20012;-87
2024/04/26 05:45:23;;;;;;;10.85;6.07;;;;;;;8.71;65.35;98372.84;6528550;22;19993;-87
2024/04/26 05:47:55;;;;;;;12.05;6.13;;;;;;;8.69;65.64;98382.59;6483597;22;19997;-87
2024/04/26 05:50:22;;;;;;;9.23;6.00;;;;;;;8.71;65.55;98388.56;6484097;22;20002;-91
2024/04/26 05:56:37;;;;;;;9.18;5.72;;;;;;;8.71;65.61;98388.56;6541045;22;20004;-88
2024/04/26 05:59:23;;;;;;;11.07;5.43;;;;;;;8.71;65.82;98396.44;6483802;22;20001;-89
2024/04/26 06:01:50;;;;;;;8.95;5.32;;;;;;;8.77;65.16;98400.38;6484092;22;20008;-87
2024/04/26 06:04:16;;;;;;;11.38;5.57;;;;;;;8.78;65.57;98404.72;6483573;22;19993;-88
2024/04/26 06:10:27;;;;;;;11.32;5.65;;;;;;;8.87;65.51;98411.94;6543615;22;20000;-96
2024/04/26 06:13:08;;;;;;;12.40;5.68;;;;;;;8.87;66.23;98409.31;6448697;22;20084;-87
2024/04/26 06:15:53;;;;;;;9.52;5.13;;;;;;;8.95;65.73;98422.72;6490766;21;20022;-91
2024/04/26 06:18:20;;;;;;;12.18;5.47;;;;;;;8.99;65.89;98418.91;6485328;22;19994;-90
2024/04/26 06:24:16;;;;;;;10.73;5.32;;;;;;;9.12;66.03;98418.00;6530114;22;20019;-91
2024/04/26 06:26:47;;;;;;;12.25;5.75;;;;;;;9.17;66.47;98426.41;6485430;22;20302;-90
2024/04/26 06:29:14;;;;;;;11.95;6.38;;;;;;;9.23;66.43;98425.94;6485603;22;20310;-91
2024/04/26 06:31:43;;;;;;;9.38;6.15;;;;;;;9.29;66.43;98423.81;6486213;22;20011;-91
2024/04/26 06:34:17;;;;;;;9.32;6.15;;;;;;;9.32;66.58;98428.84;6485867;22;20406;-91
2024/04/26 06:36:45;;;;;;;13.98;6.38;;;;;;;9.37;66.12;98421.47;6485928;22;19997;-91
2024/04/26 06:39:16;;;;;;;9.57;5.32;;;;;;;9.41;66.78;98427.34;6485441;22;20029;-91
2024/04/26 06:41:44;;;;;;;11.55;6.70;;;;;;;9.45;66.16;98423.53;6485659;22;20410;-91
2024/04/26 06:44:12;;;;;;;13.48;6.70;;;;;;;9.47;65.84;98433.00;6485432;22;20001;-91
2024/04/26 06:46:47;;;;;;;13.20;6.47;;;;;;;9.48;65.21;98436.44;6488433;22;20318;-91
2024/04/26 06:49:14;;;;;;;8.40;6.10;;;;;;;9.45;65.31;98440.13;6485478;22;20385;-91
2024/04/26 06:52:00;;;;;;;11.77;7.10;;;;;;;9.37;65.64;98443.31;6487077;22;19989;-91
2024/04/26 06:54:27;;;;;;;12.30;7.07;;;;;;;9.39;65.19;98440.59;6485564;22;20005;-90
2024/04/26 06:57:02;;;;;;;10.95;6.93;;;;;;;9.35;65.97;98447.03;6485458;22;20367;-91
2024/04/26 06:59:30;;;;;;;12.27;7.22;;;;;;;9.35;65.51;98453.09;6485413;22;20009;-90
2024/04/26 07:01:59;;;;;;;15.13;7.57;;;;;;;9.34;65.59;98459.31;6485611;22;20016;-92
2024/04/26 07:04:37;;;;;;;11.68;6.88;;;;;;;9.30;66.35;98457.03;6485924;22;20298;-87
2024/04/26 07:07:04;;;;;;;12.90;7.38;;;;;;;9.30;65.99;98454.41;6485536;22;20001;-87
2024/04/26 07:09:34;;;;;;;11.02;7.03;;;;;;;9.25;66.18;98459.97;6496078;22;20008;-96
2024/04/26 07:12:43;;;;;;;11.85;6.80;;;;;;;9.22;67.07;98466.28;6500310;22;19997;-95
2024/04/26 07:15:13;;;;;;;11.48;7.03;;;;;;;9.24;66.96;98458.31;6472788;21;20068;-91
2024/04/26 07:17:42;;;;;;;18.33;7.20;;;;;;;9.24;66.80;98464.38;6481473;22;20073;-91
2024/04/26 07:20:13;;;;;;;10.95;7.05;;;;;;;9.25;66.98;98460.81;6525612;21;20003;-91
2024/04/26 07:22:46;;;;;;;12.68;7.55;;;;;;;9.27;66.93;98465.13;6483159;22;20001;-90
2024/04/26 07:25:28;;;;;;;13.38;7.32;;;;;;;9.29;66.89;98458.81;6487092;22;20005;-90
2024/04/26 07:27:58;;;;;;;12.82;6.88;;;;;;;9.30;67.01;98464.91;6482531;22;20001;-90
2024/04/26 07:30:25;;;;;;;11.48;7.28;;;;;;;9.31;66.81;98474.44;6480758;22;20017;-90
2024/04/26 07:32:52;;;;;;;13.18;7.45;;;;;;;9.32;67.04;98466.47;6524105;22;20011;-90
2024/04/26 07:35:19;;;;;;;13.27;7.18;;;;;;;9.34;66.88;98474.19;6481828;22;20001;-91
2024/04/26 07:37:46;;;;;;;10.95;7.20;;;;;;;9.35;66.67;98479.34;6481853;22;20044;-90
2024/04/26 07:40:13;;;;;;;10.27;6.28;;;;;;;9.35;66.90;98474.09;6481354;22;20004;-90
2024/04/26 07:42:40;;;;;;;11.73;7.03;;;;;;;9.36;66.56;98467.91;6481565;22;20013;-90
2024/04/26 07:45:14;;;;;;;13.50;7.50;;;;;;;9.37;66.58;98474.00;6526550;22;20001;-90
2024/04/26 07:47:45;;;;;;;12.20;6.97;;;;;;;9.35;66.74;98481.16;6526129;22;20050;-90
2024/04/26 07:50:14;;;;;;;11.45;5.85;;;;;;;9.34;66.57;98472.44;6481036;22;20009;-90
2024/04/26 07:52:41;;;;;;;11.65;6.95;;;;;;;9.32;66.30;98469.09;6525956;22;19997;-91
2024/04/26 07:55:12;;;;;;;8.05;6.00;;;;;;;9.30;66.44;98488.53;6481967;22;20038;-90
2024/04/26 07:57:38;;;;;;;13.10;6.90;;;;;;;9.26;66.49;98485.28;6481601;22;20008;-91
2024/04/26 08:00:08;;;;;;;12.38;6.78;;;;;;;9.25;66.73;98481.81;6480913;22;20009;-91
2024/04/26 08:02:47;;;;;;;12.65;5.97;;;;;;;9.22;67.26;98484.66;6482583;22;20001;-90
2024/04/26 08:05:14;;;;;;;8.32;5.85;;;;;;;9.23;66.93;98494.22;6481430;22;20009;-91
2024/04/26 08:07:41;;;;;;;11.27;6.25;;;;;;;9.21;67.09;98485.63;6481415;22;20025;-90
2024/04/26 08:10:11;;;;;;;11.70;6.55;;;;;;;9.22;67.54;98499.56;6480962;22;20432;-90
2024/04/26 08:12:42;;;;;;;11.23;6.70;;;;;;;9.22;67.19;98494.31;6481499;22;20474;-90
2024/04/26 08:15:15;;;;;;;10.75;6.03;;;;;;;9.20;67.05;98502.31;6481415;22;20009;-90
2024/04/26 08:17:55;;;;;;;9.38;6.28;;;;;;;9.18;67.25;98493.72;6484656;22;20503;-90
2024/04/26 08:20:23;;;;;;;10.25;6.03;;;;;;;9.18;67.07;98500.75;6480694;22;20420;-90
2024/04/26 08:22:54;;;;;;;11.70;6.22;;;;;;;9.12;67.96;98505.47;6481988;22;20016;-90
2024/04/26 08:25:21;;;;;;;16.75;6.60;;;;;;;9.09;67.62;98495.19;6481193;22;20000;-90
2024/04/26 08:28:14;;;;;;;11.45;5.75;;;;;;;9.09;68.03;98494.38;6522184;22;20009;-90
2024/04/26 08:30:41;;;;;;;12.02;6.10;;;;;;;9.09;67.92;98497.00;6480945;22;20001;-90
2024/04/26 08:33:08;;;;;;;12.35;6.20;;;;;;;9.10;68.24;98498.66;6480759;22;20001;-90
2024/04/26 08:35:37;;;;;;;10.52;5.95;;;;;;;9.10;68.18;98506.53;6482106;22;20025;-90
2024/04/26 08:38:34;;;;;;;11.60;5.63;;;;;;;9.07;68.67;98510.22;6480988;22;20001;-91
2024/04/26 08:41:04;;;;;;;11.88;5.75;;;;;;;9.09;68.36;98508.31;6525849;22;20000;-91
2024/04/26 08:43:46;;;;;;;11.60;6.07;;;;;;;9.09;68.71;98512.75;6525896;22;20416;-90
2024/04/26 08:46:32;;;;;;;11.48;5.97;;;;;;;9.10;68.92;98509.16;6486754;22;20071;-90
2024/04/26 08:49:25;;;;;;;10.45;5.50;;;;;;;9.13;69.58;98504.53;6485829;22;20001;-90
2024/04/26 08:51:54;;;;;;;13.07;6.25;;;;;;;9.18;68.85;98512.09;6481485;22;20012;-90
2024/04/26 08:54:25;;;;;;;11.55;6.20;;;;;;;9.20;69.18;98515.44;6481082;22;20307;-91
2024/04/26 08:57:12;;;;;;;13.05;6.47;;;;;;;9.25;69.26;98512.50;6485409;22;20001;-91
2024/04/26 08:59:56;;;;;;;11.60;5.90;;;;;;;9.29;69.58;98518.34;6524841;21;20001;-91
2024/04/26 09:02:26;;;;;;;10.25;5.78;;;;;;;9.35;69.28;98515.28;6525286;22;20347;-90
2024/04/26 09:05:18;;;;;;;12.50;6.80;;;;;;;9.37;69.10;98526.50;6483699;22;20077;-91
2024/04/26 09:07:45;;;;;;;10.43;6.07;;;;;;;9.42;69.11;98523.56;6480817;22;20017;-91
2024/04/26 09:10:14;;;;;;;10.63;6.25;;;;;;;9.43;69.03;98531.34;6480345;22;20001;-91
2024/04/26 09:12:47;;;;;;;12.35;6.78;;;;;;;9.43;68.96;98531.34;6480762;22;20013;-90
2024/04/26 09:15:28;;;;;;;10.13;6.53;;;;;;;9.46;68.89;98530.28;6484954;22;20067;-90
2024/04/26 09:17:59;;;;;;;14.60;7.13;;;;;;;9.49;69.33;98528.25;6482498;22;20001;-90
2024/04/26 09:20:32;;;;;;;12.50;7.72;;;;;;;9.52;69.33;98535.94;6524718;21;20005;-90
2024/04/26 09:23:00;;;;;;;11.05;7.20;;;;;;;9.57;69.15;98545.25;6480878;22;20053;-90
2024/04/26 09:25:42;;;;;;;15.65;7.78;;;;;;;9.58;69.60;98536.44;6480843;22;20033;-90
2024/04/26 09:28:14;;;;;;;12.65;8.48;;;;;;;9.60;69.15;98538.00;6480128;22;20355;-91
2024/04/26 09:30:57;;;;;;;;;;;;;;;;;;;;;
2024/04/26 09:33:30;;;;;;;11.60;7.95;;;;;;;9.59;68.54;98546.81;6525180;22;20007;-90
2024/04/26 09:36:01;;;;;;;14.05;8.23;;;;;;;9.58;68.83;98545.16;6524962;22;20003;-91
2024/04/26 09:38:28;;;;;;;10.40;7.68;;;;;;;9.57;68.74;98548.72;6524565;21;20074;-90
2024/04/26 09:40:58;;;;;;;13.30;8.60;;;;;;;9.56;68.71;98554.94;6480659;22;20013;-90
2024/04/26 09:43:36;;;;;;;18.25;8.90;;;;;;;9.53;68.90;98557.75;6482125;22;20079;-91
2024/04/26 09:46:12;;;;;;;14.50;7.88;;;;;;;9.52;68.71;98559.56;6482749;22;20001;-90
2024/04/26 09:48:54;;;;;;;11.65;7.22;;;;;;;9.48;69.50;98554.63;6479543;22;20008;-90
2024/04/26 09:51:37;;;;;;;13.70;7.90;;;;;;;9.51;69.14;98560.53;6480071;22;20067;-90
2024/04/26 09:54:18;;;;;;;12.43;8.10;;;;;;;9.52;68.96;98561.34;6484891;22;20029;-90
2024/04/26 09:56:48;;;;;;;11.60;7.57;;;;;;;9.51;69.14;98571.03;6483654;22;20008;-90
2024/04/26 09:59:50;;;;;;;;;;;;;;;;;;;;;
2024/04/26 10:02:26;;;;;;;19.70;8.25;;;;;;;9.55;69.60;98573.41;6518210;22;19997;-90
2024/04/26 10:05:39;;;;;;;;;;;;;;;;;;;;;
2024/04/26 10:08:34;;;;;;;11.60;7.53;;;;;;;9.60;70.07;98580.03;6524098;21;20029;-90
2024/04/26 10:11:23;;;;;;;12.80;7.47;;;;;;;9.63;69.96;98582.44;6480510;22;20005;-90
2024/04/26 10:14:09;;;;;;;14.63;8.07;;;;;;;9.73;69.53;98590.50;6484476;22;20311;-90
2024/04/26 10:17:10;;;;;;;12.40;7.18;;;;;;;9.76;69.60;98600.78;6319436;22;20016;-90
2024/04/26 10:20:27;;;;;;;;;;;;;;;;;;;;;
2024/04/26 10:30:49;;;;;;;;;;;;;;;;;;;;;
2024/04/26 10:34:06;;;;;;;10.65;6.80;;;;;;;10.14;69.33;98616.50;6171046;22;20015;-90
2024/04/26 10:37:10;;;;;;;11.35;6.78;;;;;;;10.24;69.32;98619.28;6381882;22;20008;-90
2024/04/26 10:43:54;;;;;;;;;;;;;;;;;;;;;
2024/04/26 10:54:57;;;;;;;;;;;;;;;;;;;;;
2024/04/26 11:01:39;;;;;;;;;;;;;;;;;;;;;
2024/04/26 11:05:12;;;;;;;;;;;;;;;;;;;;;
2024/04/26 12:43:16;;;;;;;5.00;3.65;;;;;;;20.18;51.19;98682.69;6581353;21;20044;-88
2024/04/26 12:45:43;;;;;;;4.85;3.80;;;;;;;20.34;49.62;98678.25;6535047;21;20000;-88
2024/04/26 12:48:09;;;;;;;7.45;4.00;;;;;;;20.46;48.65;98677.81;6535379;21;20041;-88
2024/04/26 12:50:36;;;;;;;5.55;3.97;;;;;;;20.51;47.18;98678.09;6580719;21;20036;-89
2024/04/26 12:53:03;;;;;;;5.88;4.00;;;;;;;20.56;47.05;98673.88;6535531;21;20008;-89
2024/04/26 12:55:30;;;;;;;7.90;3.80;;;;;;;20.51;46.20;98675.44;6580434;21;20011;-88
2024/04/26 12:58:00;;;;;;;6.35;4.22;;;;;;;20.39;46.60;98669.69;6535013;21;19997;-88
2024/04/26 13:00:26;;;;;;;4.35;3.55;;;;;;;20.30;46.52;98682.28;6580225;21;19996;-89
2024/04/26 13:02:56;;;;;;;4.75;3.50;;;;;;;20.32;45.69;98688.28;6535159;21;19992;-88
2024/04/26 13:05:26;;;;;;;4.05;3.25;;;;;;;20.48;47.93;98694.53;6581589;21;20004;-91
2024/04/26 13:07:54;;;;;;;4.00;3.60;;;;;;;20.70;47.92;98682.13;6581751;21;20004;-90
2024/04/26 13:46:47;;;;;;;8.02;3.85;;;;;;;21.57;42.66;98681.81;6463925;22;19994;-89
2024/04/26 13:49:18;;;;;;;3.95;3.55;;;;;;;21.77;44.63;98691.97;6433156;22;20350;-89
2024/04/26 13:51:46;;;;;;;4.13;3.72;;;;;;;21.91;42.38;98704.53;6433438;22;20140;-90
2024/04/26 13:54:28;;;;;;;4.63;3.55;;;;;;;21.87;38.89;98692.50;6477267;22;19998;-89
2024/04/26 13:56:55;;;;;;;6.68;3.50;;;;;;;21.84;40.57;98687.53;6433541;22;20081;-88
2024/04/26 13:59:22;;;;;;;4.43;3.22;;;;;;;21.84;41.77;98696.41;6477038;22;20005;-91
2024/04/26 14:02:03;;;;;;;3.60;3.08;;;;;;;21.89;38.29;98694.97;6477483;22;19994;-89
2024/04/26 14:04:31;;;;;;;5.65;3.17;;;;;;;22.17;43.34;98689.75;6433800;22;20272;-90
2024/04/26 14:06:58;;;;;;;3.10;2.80;;;;;;;22.48;41.88;98694.00;6433531;22;20001;-90
2024/04/26 14:09:41;;;;;;;4.30;2.85;;;;;;;22.84;41.57;98686.06;6433237;22;20017;-90
2024/04/26 14:12:08;;;;;;;3.35;2.85;;;;;;;23.34;43.18;98691.41;6477430;22;20006;-91
2024/04/26 14:14:35;;;;;;;3.67;2.65;;;;;;;23.76;41.50;98688.72;6433057;22;20416;-89
2024/04/26 14:17:04;;;;;;;3.15;2.60;;;;;;;24.15;40.15;98688.25;6432811;22;20034;-91
2024/04/26 14:19:33;;;;;;;4.07;3.05;;;;;;;24.47;38.70;98688.50;6433177;22;20002;-89
2024/04/26 14:22:00;;;;;;;3.33;2.75;;;;;;;24.71;38.70;98689.78;6477076;22;19998;-90
2024/04/26 14:24:46;;;;;;;3.83;2.67;;;;;;;24.80;36.64;98682.34;6432755;22;19998;-90
2024/04/26 14:27:12;;;;;;;3.78;2.67;;;;;;;24.85;37.40;98687.09;6477329;22;20009;-91
2024/04/26 14:30:06;;;;;;;4.70;2.80;;;;;;;24.73;38.14;98686.88;6476725;22;20299;-89
2024/04/26 14:32:33;;;;;;;3.35;2.90;;;;;;;24.83;38.71;98687.31;6476902;22;19994;-90
2024/04/26 14:35:00;;;;;;;5.28;3.17;;;;;;;24.85;38.21;98693.34;6432883;22;19998;-89
2024/04/26 14:37:29;;;;;;;3.25;2.85;;;;;;;24.57;35.05;98696.19;6477177;22;19994;-90
2024/04/26 14:39:56;;;;;;;3.78;3.05;;;;;;;24.08;35.17;98682.84;6478996;22;20320;-91
2024/04/26 14:42:24;;;;;;;4.32;2.92;;;;;;;23.45;34.73;98683.81;6479470;22;20005;-90
2024/04/26 14:44:56;;;;;;;4.75;3.10;;;;;;;22.69;34.83;98683.47;6435452;22;20004;-91
2024/04/26 14:47:23;;;;;;;;;;;;;;;22.08;33.29;98688.19;6436064;22;20002;-91
2024/04/26 14:49:57;;;;;;;4.93;3.80;;;;;;;21.40;35.38;98687.34;6479396;22;19926;-89
2024/04/26 14:52:23;;;;;;;4.25;3.47;;;;;;;20.78;36.44;98689.28;6435011;22;20334;-91
2024/04/26 14:54:51;;;;;;;5.18;3.50;;;;;;;20.16;37.57;98695.41;6434882;22;20017;-89
2024/04/26 14:57:18;;;;;;;4.32;3.45;;;;;;;19.59;37.73;98691.13;6434843;22;20002;-90
2024/04/26 14:59:52;;;;;;;3.92;3.38;;;;;;;19.04;37.83;98697.06;6434961;22;19998;-90
2024/04/26 15:02:19;;;;;;;4.55;3.40;;;;;;;18.75;39.91;98693.09;6478994;22;20319;-89
2024/04/26 15:04:46;;;;;;;4.53;3.15;;;;;;;18.59;40.93;98685.94;6434750;22;20010;-89
2024/04/26 15:07:42;;;;;;;4.60;3.72;;;;;;;18.64;41.31;98694.25;6435032;22;20077;-89
2024/04/26 15:10:10;;;;;;;3.42;3.13;;;;;;;18.97;42.79;98685.41;6435295;22;20001;-90
2024/04/26 15:12:39;;;;;;;4.95;3.35;;;;;;;19.39;42.37;98703.03;6479343;22;19993;-90
2024/04/26 15:15:16;;;;;;;4.63;3.17;;;;;;;19.97;42.88;98695.78;6435129;22;20402;-89
2024/04/26 15:17:44;;;;;;;3.50;3.20;;;;;;;20.62;43.29;98704.44;6434774;22;19998;-90
2024/04/26 15:20:11;;;;;;;3.80;2.95;;;;;;;21.11;41.30;98715.75;6434997;22;20009;-90
2024/04/26 15:22:50;;;;;;;4.38;3.15;;;;;;;21.30;37.05;98714.38;6479108;22;20506;-90
2024/04/26 15:25:17;;;;;;;4.43;2.88;;;;;;;21.46;39.79;98713.38;6434514;22;19994;-90